Juan Gualberto Gomez International Airport
MUVR : now visible

Airfield :











YOU CAN JOIN US ON...

 
LOGIN :

Register | Disclaimer

   EN    FR    IT 

 









Legend :    VFR   Marginal VFR   IFR   Intensive IFR   Very Intensive IFR
Visi :
Ceiling :
>= 8 km
>= 3000ft
5 to 8 km
1000 to 3000 ft
1500m to 5 km
500 to 1000 ft
800 to 1500m
200 to 500 ft
< 800m
< 200 ft
Symbols :   Thunderstorms  Fog  Heavy snow  Heavy precipitations  Wind > 20 kt






- Airport Elevation : 210 ft
- IATA code : VRA


MUVR - Juan Gualberto Gomez International

CURRENT METAR :
  • 300250Z 09003KT 9000 FEW030 26/24 Q1016

EXPIRED METARs :
  • 300150Z 10003KT 9000 FEW020 27/24 Q1016
  • 300050Z 08007KT 060V120 9000 FEW020 27/24 Q1016

TAF MUVR
Valid from the 30 at 00:00 until the 31 at 00:00 UTC


292300Z 3000/3024 07010KT 9000 SCT020 BKN100
BECMG 3002/3005 VRB03KT
BECMG 3015/3017 07009KT
TEMPO 3018/3023 VRB10KT 5000 TSRA SCT020CB BKN035
MUFH FIR / North America



MET'MAP, your aeronautical weather chart ! - Copyright ORBIFLY December 2007 - Disclaimer

ORBIFLY MET'MAP TEAM :

Programming & Development : Alexandra Zaïnal
Concept & original design : Baudouin d'Aumeries
Assistance for programming : Marc-Olivier Méhu
Technical & hardware support : Manuel Goepfert

Contact : metmap@orbifly.com




SOURCES & CREDITS :

   NOAA       Earth
Advisory